sensor_id;sensor_type;location;lat;lon;timestamp;P1;durP1;ratioP1;P2;durP2;ratioP2
51985;SDS011;38002;53.296;6.600;2022-08-30T00:00:32;1.55;;;1.45;;
51985;SDS011;38002;53.296;6.600;2022-08-30T00:05:52;2.80;;;1.52;;
51985;SDS011;38002;53.296;6.600;2022-08-30T00:10:53;1.40;;;1.30;;
51985;SDS011;38002;53.296;6.600;2022-08-30T00:15:53;2.67;;;1.60;;
51985;SDS011;38002;53.296;6.600;2022-08-30T00:20:54;2.58;;;1.70;;
51985;SDS011;38002;53.296;6.600;2022-08-30T00:25:54;2.15;;;1.23;;
51985;SDS011;38002;53.296;6.600;2022-08-30T00:30:55;2.08;;;1.15;;
51985;SDS011;38002;53.296;6.600;2022-08-30T00:35:55;2.08;;;1.40;;
51985;SDS011;38002;53.296;6.600;2022-08-30T00:40:56;2.30;;;1.55;;
51985;SDS011;38002;53.296;6.600;2022-08-30T00:45:58;1.88;;;1.67;;
51985;SDS011;38002;53.296;6.600;2022-08-30T00:51:04;2.47;;;1.38;;
51985;SDS011;38002;53.296;6.600;2022-08-30T00:56:06;4.32;;;1.73;;
51985;SDS011;38002;53.296;6.600;2022-08-30T01:01:07;3.65;;;1.58;;
51985;SDS011;38002;53.296;6.600;2022-08-30T01:06:08;4.10;;;1.27;;
51985;SDS011;38002;53.296;6.600;2022-08-30T01:11:09;1.52;;;1.42;;
51985;SDS011;38002;53.296;6.600;2022-08-30T01:16:11;3.25;;;1.25;;
51985;SDS011;38002;53.296;6.600;2022-08-30T01:21:18;1.63;;;1.52;;
51985;SDS011;38002;53.296;6.600;2022-08-30T01:26:27;1.63;;;1.17;;
51985;SDS011;38002;53.296;6.600;2022-08-30T01:31:28;1.92;;;1.35;;
51985;SDS011;38002;53.296;6.600;2022-08-30T01:36:29;1.95;;;1.42;;
51985;SDS011;38002;53.296;6.600;2022-08-30T01:41:32;2.13;;;1.73;;
51985;SDS011;38002;53.296;6.600;2022-08-30T01:46:35;2.13;;;1.65;;
51985;SDS011;38002;53.296;6.600;2022-08-30T01:51:39;3.90;;;2.03;;
51985;SDS011;38002;53.296;6.600;2022-08-30T01:56:40;2.33;;;2.15;;
51985;SDS011;38002;53.296;6.600;2022-08-30T02:01:41;2.42;;;2.17;;
51985;SDS011;38002;53.296;6.600;2022-08-30T02:06:42;3.33;;;2.40;;
51985;SDS011;38002;53.296;6.600;2022-08-30T02:11:43;3.47;;;2.22;;
51985;SDS011;38002;53.296;6.600;2022-08-30T02:16:44;2.53;;;2.00;;
51985;SDS011;38002;53.296;6.600;2022-08-30T02:21:47;3.92;;;2.25;;
51985;SDS011;38002;53.296;6.600;2022-08-30T02:26:48;2.35;;;2.00;;
51985;SDS011;38002;53.296;6.600;2022-08-30T02:31:48;2.95;;;2.60;;
51985;SDS011;38002;53.296;6.600;2022-08-30T02:36:49;3.05;;;2.53;;
51985;SDS011;38002;53.296;6.600;2022-08-30T02:41:50;2.92;;;1.73;;
51985;SDS011;38002;53.296;6.600;2022-08-30T02:46:50;1.77;;;1.67;;
51985;SDS011;38002;53.296;6.600;2022-08-30T02:51:51;2.35;;;2.15;;
51985;SDS011;38002;53.296;6.600;2022-08-30T02:56:51;2.53;;;2.22;;
51985;SDS011;38002;53.296;6.600;2022-08-30T03:01:52;4.18;;;2.63;;
51985;SDS011;38002;53.296;6.600;2022-08-30T03:06:52;3.03;;;2.50;;
51985;SDS011;38002;53.296;6.600;2022-08-30T03:11:53;2.72;;;2.38;;
51985;SDS011;38002;53.296;6.600;2022-08-30T03:16:53;3.22;;;2.92;;
51985;SDS011;38002;53.296;6.600;2022-08-30T03:21:54;3.40;;;2.60;;
51985;SDS011;38002;53.296;6.600;2022-08-30T03:26:54;4.32;;;3.08;;
51985;SDS011;38002;53.296;6.600;2022-08-30T03:31:55;6.72;;;3.88;;
51985;SDS011;38002;53.296;6.600;2022-08-30T03:36:56;4.00;;;3.60;;
51985;SDS011;38002;53.296;6.600;2022-08-30T03:41:57;2.75;;;2.55;;
51985;SDS011;38002;53.296;6.600;2022-08-30T03:46:58;3.33;;;2.85;;
51985;SDS011;38002;53.296;6.600;2022-08-30T03:51:58;5.40;;;3.55;;
51985;SDS011;38002;53.296;6.600;2022-08-30T03:56:59;5.18;;;3.00;;
51985;SDS011;38002;53.296;6.600;2022-08-30T04:01:59;3.15;;;2.85;;
51985;SDS011;38002;53.296;6.600;2022-08-30T04:07:00;5.50;;;3.22;;
51985;SDS011;38002;53.296;6.600;2022-08-30T04:12:00;5.10;;;3.67;;
51985;SDS011;38002;53.296;6.600;2022-08-30T04:17:01;4.15;;;3.40;;
51985;SDS011;38002;53.296;6.600;2022-08-30T04:22:01;2.97;;;2.72;;
51985;SDS011;38002;53.296;6.600;2022-08-30T04:27:02;4.72;;;2.90;;
51985;SDS011;38002;53.296;6.600;2022-08-30T04:32:03;2.87;;;2.40;;
51985;SDS011;38002;53.296;6.600;2022-08-30T04:37:04;3.92;;;2.45;;
51985;SDS011;38002;53.296;6.600;2022-08-30T04:42:04;3.00;;;2.65;;
51985;SDS011;38002;53.296;6.600;2022-08-30T04:47:05;3.57;;;2.60;;
51985;SDS011;38002;53.296;6.600;2022-08-30T04:52:09;4.40;;;2.60;;
51985;SDS011;38002;53.296;6.600;2022-08-30T04:57:10;5.07;;;2.50;;
51985;SDS011;38002;53.296;6.600;2022-08-30T05:02:10;2.78;;;2.03;;
51985;SDS011;38002;53.296;6.600;2022-08-30T05:07:10;3.70;;;3.38;;
51985;SDS011;38002;53.296;6.600;2022-08-30T05:12:11;3.20;;;2.90;;
51985;SDS011;38002;53.296;6.600;2022-08-30T05:17:11;3.92;;;3.08;;
51985;SDS011;38002;53.296;6.600;2022-08-30T05:22:12;2.58;;;2.38;;
51985;SDS011;38002;53.296;6.600;2022-08-30T05:27:12;6.72;;;2.85;;
51985;SDS011;38002;53.296;6.600;2022-08-30T05:32:12;4.30;;;3.38;;
51985;SDS011;38002;53.296;6.600;2022-08-30T05:37:13;3.53;;;2.80;;
51985;SDS011;38002;53.296;6.600;2022-08-30T05:42:13;3.60;;;3.30;;
51985;SDS011;38002;53.296;6.600;2022-08-30T05:47:14;3.65;;;3.35;;
51985;SDS011;38002;53.296;6.600;2022-08-30T05:52:14;4.13;;;3.70;;
51985;SDS011;38002;53.296;6.600;2022-08-30T05:57:17;5.53;;;3.50;;
51985;SDS011;38002;53.296;6.600;2022-08-30T06:02:17;3.95;;;3.53;;
51985;SDS011;38002;53.296;6.600;2022-08-30T06:07:18;3.50;;;3.10;;
51985;SDS011;38002;53.296;6.600;2022-08-30T06:12:18;6.45;;;3.75;;
51985;SDS011;38002;53.296;6.600;2022-08-30T06:17:19;4.82;;;4.18;;
51985;SDS011;38002;53.296;6.600;2022-08-30T06:22:19;5.07;;;4.07;;
51985;SDS011;38002;53.296;6.600;2022-08-30T06:27:20;5.32;;;4.45;;
51985;SDS011;38002;53.296;6.600;2022-08-30T06:32:20;6.22;;;3.85;;
51985;SDS011;38002;53.296;6.600;2022-08-30T06:37:21;4.65;;;3.45;;
51985;SDS011;38002;53.296;6.600;2022-08-30T06:42:22;3.55;;;3.25;;
51985;SDS011;38002;53.296;6.600;2022-08-30T06:47:23;4.93;;;3.35;;
51985;SDS011;38002;53.296;6.600;2022-08-30T06:52:23;3.17;;;2.30;;
51985;SDS011;38002;53.296;6.600;2022-08-30T06:57:24;2.38;;;2.17;;
51985;SDS011;38002;53.296;6.600;2022-08-30T07:02:25;4.67;;;2.43;;
51985;SDS011;38002;53.296;6.600;2022-08-30T07:07:26;5.70;;;1.98;;
51985;SDS011;38002;53.296;6.600;2022-08-30T07:12:26;3.35;;;2.10;;
51985;SDS011;38002;53.296;6.600;2022-08-30T07:17:27;2.28;;;1.95;;
51985;SDS011;38002;53.296;6.600;2022-08-30T07:22:46;3.67;;;1.60;;
51985;SDS011;38002;53.296;6.600;2022-08-30T07:27:47;3.03;;;1.37;;
51985;SDS011;38002;53.296;6.600;2022-08-30T07:32:50;2.92;;;1.20;;
51985;SDS011;38002;53.296;6.600;2022-08-30T07:37:51;3.60;;;1.13;;
51985;SDS011;38002;53.296;6.600;2022-08-30T07:42:51;1.88;;;1.10;;
51985;SDS011;38002;53.296;6.600;2022-08-30T07:47:52;3.78;;;1.10;;
51985;SDS011;38002;53.296;6.600;2022-08-30T07:52:52;1.75;;;1.13;;
51985;SDS011;38002;53.296;6.600;2022-08-30T07:57:53;6.60;;;1.20;;
51985;SDS011;38002;53.296;6.600;2022-08-30T08:02:54;6.68;;;1.10;;
51985;SDS011;38002;53.296;6.600;2022-08-30T08:07:54;1.20;;;1.02;;
51985;SDS011;38002;53.296;6.600;2022-08-30T08:12:55;3.70;;;1.10;;
51985;SDS011;38002;53.296;6.600;2022-08-30T08:17:55;4.23;;;1.10;;
51985;SDS011;38002;53.296;6.600;2022-08-30T08:22:55;1.50;;;1.10;;
51985;SDS011;38002;53.296;6.600;2022-08-30T08:27:56;0.80;;;0.80;;
51985;SDS011;38002;53.296;6.600;2022-08-30T08:32:57;1.73;;;1.10;;
51985;SDS011;38002;53.296;6.600;2022-08-30T08:37:57;1.20;;;0.77;;
51985;SDS011;38002;53.296;6.600;2022-08-30T08:43:04;1.97;;;1.10;;
51985;SDS011;38002;53.296;6.600;2022-08-30T08:48:11;2.42;;;0.80;;
51985;SDS011;38002;53.296;6.600;2022-08-30T08:53:23;1.13;;;1.00;;
51985;SDS011;38002;53.296;6.600;2022-08-30T08:58:42;1.60;;;1.00;;
51985;SDS011;38002;53.296;6.600;2022-08-30T09:03:43;1.45;;;1.10;;
51985;SDS011;38002;53.296;6.600;2022-08-30T09:13:45;2.03;;;1.13;;
51985;SDS011;38002;53.296;6.600;2022-08-30T09:18:46;2.17;;;1.00;;
51985;SDS011;38002;53.296;6.600;2022-08-30T09:28:55;5.05;;;0.95;;
51985;SDS011;38002;53.296;6.600;2022-08-30T09:39:46;2.17;;;0.80;;
51985;SDS011;38002;53.296;6.600;2022-08-30T09:44:32;2.40;;;0.80;;
51985;SDS011;38002;53.296;6.600;2022-08-30T09:49:38;2.38;;;0.90;;
51985;SDS011;38002;53.296;6.600;2022-08-30T10:16:08;2.03;;;0.90;;
51985;SDS011;38002;53.296;6.600;2022-08-30T10:21:38;2.10;;;0.77;;
51985;SDS011;38002;53.296;6.600;2022-08-30T10:26:51;1.90;;;0.75;;
51985;SDS011;38002;53.296;6.600;2022-08-30T10:32:02;5.88;;;1.08;;
51985;SDS011;38002;53.296;6.600;2022-08-30T10:37:11;0.50;;;0.50;;
51985;SDS011;38002;53.296;6.600;2022-08-30T10:42:17;0.95;;;0.70;;
51985;SDS011;38002;53.296;6.600;2022-08-30T10:52:40;3.60;;;1.05;;
51985;SDS011;38002;53.296;6.600;2022-08-30T10:57:44;2.72;;;0.73;;
51985;SDS011;38002;53.296;6.600;2022-08-30T11:13:30;2.80;;;0.98;;
51985;SDS011;38002;53.296;6.600;2022-08-30T11:18:51;0.95;;;0.70;;
51985;SDS011;38002;53.296;6.600;2022-08-30T11:29:09;4.05;;;0.82;;
51985;SDS011;38002;53.296;6.600;2022-08-30T11:44:48;3.00;;;0.70;;
51985;SDS011;38002;53.296;6.600;2022-08-30T11:49:56;1.10;;;0.73;;
51985;SDS011;38002;53.296;6.600;2022-08-30T12:00:26;2.50;;;1.02;;
51985;SDS011;38002;53.296;6.600;2022-08-30T12:10:46;3.40;;;1.08;;
51985;SDS011;38002;53.296;6.600;2022-08-30T12:15:54;0.75;;;0.70;;
51985;SDS011;38002;53.296;6.600;2022-08-30T12:21:04;1.30;;;1.08;;
51985;SDS011;38002;53.296;6.600;2022-08-30T12:26:31;3.00;;;1.08;;
51985;SDS011;38002;53.296;6.600;2022-08-30T12:42:16;2.75;;;1.13;;
51985;SDS011;38002;53.296;6.600;2022-08-30T12:47:19;1.05;;;0.80;;
51985;SDS011;38002;53.296;6.600;2022-08-30T12:52:30;2.33;;;1.05;;
51985;SDS011;38002;53.296;6.600;2022-08-30T13:02:50;1.20;;;1.08;;
51985;SDS011;38002;53.296;6.600;2022-08-30T13:08:06;2.00;;;0.90;;
51985;SDS011;38002;53.296;6.600;2022-08-30T13:13:09;2.35;;;1.10;;
51985;SDS011;38002;53.296;6.600;2022-08-30T13:18:11;2.13;;;0.80;;
51985;SDS011;38002;53.296;6.600;2022-08-30T13:23:21;1.77;;;0.98;;
51985;SDS011;38002;53.296;6.600;2022-08-30T13:28:22;1.10;;;1.00;;
51985;SDS011;38002;53.296;6.600;2022-08-30T13:33:23;0.70;;;0.70;;
51985;SDS011;38002;53.296;6.600;2022-08-30T13:38:23;1.23;;;1.00;;
51985;SDS011;38002;53.296;6.600;2022-08-30T13:43:24;2.33;;;1.00;;
51985;SDS011;38002;53.296;6.600;2022-08-30T13:48:24;4.53;;;1.00;;
51985;SDS011;38002;53.296;6.600;2022-08-30T13:53:25;3.00;;;1.15;;
51985;SDS011;38002;53.296;6.600;2022-08-30T13:58:27;1.10;;;0.70;;
51985;SDS011;38002;53.296;6.600;2022-08-30T14:03:27;2.53;;;0.90;;
51985;SDS011;38002;53.296;6.600;2022-08-30T14:08:28;1.00;;;1.00;;
51985;SDS011;38002;53.296;6.600;2022-08-30T14:13:29;1.50;;;0.82;;
51985;SDS011;38002;53.296;6.600;2022-08-30T14:18:30;1.85;;;0.80;;
51985;SDS011;38002;53.296;6.600;2022-08-30T14:23:30;1.07;;;0.93;;
51985;SDS011;38002;53.296;6.600;2022-08-30T14:28:31;4.00;;;1.07;;
51985;SDS011;38002;53.296;6.600;2022-08-30T14:33:31;4.23;;;0.87;;
51985;SDS011;38002;53.296;6.600;2022-08-30T14:38:32;1.52;;;0.90;;
51985;SDS011;38002;53.296;6.600;2022-08-30T14:43:32;1.70;;;1.00;;
51985;SDS011;38002;53.296;6.600;2022-08-30T14:48:34;1.33;;;1.00;;
51985;SDS011;38002;53.296;6.600;2022-08-30T14:53:36;2.15;;;0.80;;
51985;SDS011;38002;53.296;6.600;2022-08-30T14:58:36;1.10;;;0.60;;
51985;SDS011;38002;53.296;6.600;2022-08-30T15:03:38;1.90;;;0.90;;
51985;SDS011;38002;53.296;6.600;2022-08-30T15:08:39;2.45;;;1.00;;
51985;SDS011;38002;53.296;6.600;2022-08-30T15:13:40;1.17;;;0.90;;
51985;SDS011;38002;53.296;6.600;2022-08-30T15:18:43;1.50;;;0.90;;
51985;SDS011;38002;53.296;6.600;2022-08-30T15:23:44;1.20;;;1.10;;
51985;SDS011;38002;53.296;6.600;2022-08-30T15:28:44;1.47;;;1.07;;
51985;SDS011;38002;53.296;6.600;2022-08-30T15:33:45;1.00;;;0.90;;
51985;SDS011;38002;53.296;6.600;2022-08-30T15:38:45;1.07;;;0.83;;
51985;SDS011;38002;53.296;6.600;2022-08-30T15:43:47;1.42;;;0.90;;
51985;SDS011;38002;53.296;6.600;2022-08-30T15:48:47;5.50;;;1.37;;
51985;SDS011;38002;53.296;6.600;2022-08-30T15:53:51;4.60;;;1.13;;
51985;SDS011;38002;53.296;6.600;2022-08-30T15:58:52;1.40;;;1.30;;
51985;SDS011;38002;53.296;6.600;2022-08-30T16:03:52;4.07;;;1.43;;
51985;SDS011;38002;53.296;6.600;2022-08-30T16:08:53;7.10;;;1.50;;
51985;SDS011;38002;53.296;6.600;2022-08-30T16:18:55;4.50;;;1.53;;
51985;SDS011;38002;53.296;6.600;2022-08-30T16:23:58;1.63;;;1.30;;
51985;SDS011;38002;53.296;6.600;2022-08-30T16:29:00;2.65;;;1.52;;
51985;SDS011;38002;53.296;6.600;2022-08-30T16:34:02;3.28;;;1.20;;
51985;SDS011;38002;53.296;6.600;2022-08-30T16:39:05;1.10;;;1.02;;
51985;SDS011;38002;53.296;6.600;2022-08-30T16:44:07;2.72;;;2.20;;
51985;SDS011;38002;53.296;6.600;2022-08-30T16:49:08;1.35;;;1.10;;
51985;SDS011;38002;53.296;6.600;2022-08-30T16:54:08;1.80;;;1.00;;
51985;SDS011;38002;53.296;6.600;2022-08-30T16:59:09;2.60;;;0.83;;
51985;SDS011;38002;53.296;6.600;2022-08-30T17:09:11;0.67;;;0.67;;
51985;SDS011;38002;53.296;6.600;2022-08-30T17:14:12;1.80;;;0.90;;
51985;SDS011;38002;53.296;6.600;2022-08-30T17:19:12;1.00;;;0.90;;
51985;SDS011;38002;53.296;6.600;2022-08-30T17:24:13;3.08;;;1.10;;
51985;SDS011;38002;53.296;6.600;2022-08-30T17:29:14;5.53;;;0.73;;
51985;SDS011;38002;53.296;6.600;2022-08-30T17:34:15;0.98;;;0.98;;
51985;SDS011;38002;53.296;6.600;2022-08-30T17:39:16;0.60;;;0.60;;
51985;SDS011;38002;53.296;6.600;2022-08-30T17:44:22;2.13;;;0.90;;
51985;SDS011;38002;53.296;6.600;2022-08-30T17:49:26;1.27;;;0.50;;
51985;SDS011;38002;53.296;6.600;2022-08-30T17:54:29;2.90;;;0.80;;
51985;SDS011;38002;53.296;6.600;2022-08-30T17:59:32;4.35;;;0.70;;
51985;SDS011;38002;53.296;6.600;2022-08-30T18:04:33;2.30;;;0.70;;
51985;SDS011;38002;53.296;6.600;2022-08-30T18:09:34;0.77;;;0.70;;
51985;SDS011;38002;53.296;6.600;2022-08-30T18:14:34;0.67;;;0.67;;
51985;SDS011;38002;53.296;6.600;2022-08-30T18:19:35;1.47;;;0.60;;
51985;SDS011;38002;53.296;6.600;2022-08-30T18:24:35;0.87;;;0.73;;
51985;SDS011;38002;53.296;6.600;2022-08-30T18:29:36;2.17;;;1.00;;
51985;SDS011;38002;53.296;6.600;2022-08-30T18:34:37;1.45;;;0.77;;
51985;SDS011;38002;53.296;6.600;2022-08-30T18:39:40;1.35;;;0.75;;
51985;SDS011;38002;53.296;6.600;2022-08-30T18:44:41;1.95;;;0.77;;
51985;SDS011;38002;53.296;6.600;2022-08-30T18:49:41;1.13;;;0.70;;
51985;SDS011;38002;53.296;6.600;2022-08-30T18:54:44;0.70;;;0.70;;
51985;SDS011;38002;53.296;6.600;2022-08-30T18:59:45;1.33;;;0.95;;
51985;SDS011;38002;53.296;6.600;2022-08-30T19:04:45;4.37;;;0.97;;
51985;SDS011;38002;53.296;6.600;2022-08-30T19:09:46;1.33;;;0.60;;
51985;SDS011;38002;53.296;6.600;2022-08-30T19:14:47;3.03;;;0.90;;
51985;SDS011;38002;53.296;6.600;2022-08-30T19:19:48;1.10;;;0.70;;
51985;SDS011;38002;53.296;6.600;2022-08-30T19:24:48;0.80;;;0.67;;
51985;SDS011;38002;53.296;6.600;2022-08-30T19:29:49;1.23;;;0.63;;
51985;SDS011;38002;53.296;6.600;2022-08-30T19:34:49;0.90;;;0.90;;
51985;SDS011;38002;53.296;6.600;2022-08-30T19:39:50;0.93;;;0.80;;
51985;SDS011;38002;53.296;6.600;2022-08-30T19:44:51;1.33;;;0.63;;
51985;SDS011;38002;53.296;6.600;2022-08-30T19:49:51;0.80;;;0.63;;
51985;SDS011;38002;53.296;6.600;2022-08-30T19:54:54;0.60;;;0.53;;
51985;SDS011;38002;53.296;6.600;2022-08-30T19:59:56;0.50;;;0.50;;
51985;SDS011;38002;53.296;6.600;2022-08-30T20:04:59;1.85;;;0.70;;
51985;SDS011;38002;53.296;6.600;2022-08-30T20:10:00;0.43;;;0.43;;
51985;SDS011;38002;53.296;6.600;2022-08-30T20:15:05;0.60;;;0.60;;
51985;SDS011;38002;53.296;6.600;2022-08-30T20:20:10;6.47;;;0.70;;
51985;SDS011;38002;53.296;6.600;2022-08-30T20:25:11;2.17;;;0.52;;
51985;SDS011;38002;53.296;6.600;2022-08-30T20:30:13;0.50;;;0.50;;
51985;SDS011;38002;53.296;6.600;2022-08-30T20:35:15;0.40;;;0.35;;
51985;SDS011;38002;53.296;6.600;2022-08-30T20:40:17;0.32;;;0.32;;
51985;SDS011;38002;53.296;6.600;2022-08-30T20:45:19;0.50;;;0.50;;
51985;SDS011;38002;53.296;6.600;2022-08-30T20:50:20;1.13;;;0.50;;
51985;SDS011;38002;53.296;6.600;2022-08-30T20:55:20;1.93;;;0.70;;
51985;SDS011;38002;53.296;6.600;2022-08-30T21:00:21;0.30;;;0.30;;
51985;SDS011;38002;53.296;6.600;2022-08-30T21:05:22;0.70;;;0.50;;
51985;SDS011;38002;53.296;6.600;2022-08-30T21:10:23;0.97;;;0.47;;
51985;SDS011;38002;53.296;6.600;2022-08-30T21:15:23;9.93;;;0.90;;
51985;SDS011;38002;53.296;6.600;2022-08-30T21:20:24;2.17;;;0.30;;
51985;SDS011;38002;53.296;6.600;2022-08-30T21:25:25;0.38;;;0.38;;
51985;SDS011;38002;53.296;6.600;2022-08-30T21:30:25;0.30;;;0.30;;
51985;SDS011;38002;53.296;6.600;2022-08-30T21:35:26;0.83;;;0.50;;
51985;SDS011;38002;53.296;6.600;2022-08-30T21:40:46;0.30;;;0.30;;
51985;SDS011;38002;53.296;6.600;2022-08-30T21:45:47;1.00;;;0.50;;
51985;SDS011;38002;53.296;6.600;2022-08-30T21:50:50;0.77;;;0.38;;
51985;SDS011;38002;53.296;6.600;2022-08-30T21:55:50;2.03;;;0.40;;
51985;SDS011;38002;53.296;6.600;2022-08-30T22:00:51;2.73;;;0.40;;
51985;SDS011;38002;53.296;6.600;2022-08-30T22:05:53;0.50;;;0.50;;
51985;SDS011;38002;53.296;6.600;2022-08-30T22:10:53;1.60;;;0.60;;
51985;SDS011;38002;53.296;6.600;2022-08-30T22:15:54;0.67;;;0.57;;
51985;SDS011;38002;53.296;6.600;2022-08-30T22:20:54;0.50;;;0.50;;
51985;SDS011;38002;53.296;6.600;2022-08-30T22:25:56;0.37;;;0.23;;
51985;SDS011;38002;53.296;6.600;2022-08-30T22:36:05;0.40;;;0.40;;
51985;SDS011;38002;53.296;6.600;2022-08-30T22:41:12;0.82;;;0.40;;
51985;SDS011;38002;53.296;6.600;2022-08-30T22:46:16;0.38;;;0.38;;
51985;SDS011;38002;53.296;6.600;2022-08-30T22:51:18;0.75;;;0.50;;
51985;SDS011;38002;53.296;6.600;2022-08-30T22:56:22;1.30;;;0.50;;
51985;SDS011;38002;53.296;6.600;2022-08-30T23:01:25;0.60;;;0.43;;
51985;SDS011;38002;53.296;6.600;2022-08-30T23:11:26;0.50;;;0.40;;
51985;SDS011;38002;53.296;6.600;2022-08-30T23:16:27;2.87;;;0.30;;
51985;SDS011;38002;53.296;6.600;2022-08-30T23:21:28;0.40;;;0.40;;
51985;SDS011;38002;53.296;6.600;2022-08-30T23:26:29;0.40;;;0.40;;
51985;SDS011;38002;53.296;6.600;2022-08-30T23:31:48;0.38;;;0.38;;
51985;SDS011;38002;53.296;6.600;2022-08-30T23:37:07;0.75;;;0.30;;
51985;SDS011;38002;53.296;6.600;2022-08-30T23:42:26;0.65;;;0.32;;
51985;SDS011;38002;53.296;6.600;2022-08-30T23:47:45;0.30;;;0.30;;
51985;SDS011;38002;53.296;6.600;2022-08-30T23:53:04;0.20;;;0.20;;
51985;SDS011;38002;53.296;6.600;2022-08-30T23:58:24;0.82;;;0.20;;
